• Join FlightAware (Why Join?)
  • Login
  • US Flag 
03:11PM EST


 

Airport Tracker/Info


-or-


 

Live Flight TrackerFlight Track Log ✈ SWA494 ✈ 14 Apr 2013 ✈ KLAX - KHOU

Flight Track Log - Related Links

Times and Time Zones

All times are in EDT time to prevent confusion due to time zone crossing. See the SWA494 flight status page for this flight to view local times or setup timezone preferences in your user account.

Time Position Orientation Groundspeed Altitude Reporting Facility
EDT Latitude Longitude Course Direction KTS MPH feet Rate Location/Type
03:20PM 33.8833 -118.4833 90° East 240 276 2,500  Level Southern California TRACON
03:21PM 33.8083 -118.5011 191° South 265 305 5,200 2,460 Climbing Los Angeles Center
03:22PM 33.7122 -118.5075 183° South 299 344 8,200 2,640 Climbing Los Angeles Center
03:23PM 33.6725 -118.4181 118° Southeast 313 360 10,700 2,160 Climbing Los Angeles Center
03:25PM 33.6333 -118.2344 90° East  Level FlightAware Approximate
03:25PM 33.6334 -118.2793 90° East  Level FlightAware Approximate
03:26PM 33.6442 -118.1847 90° East 378 435 15,000  Level Los Angeles Center
03:27PM 33.6439 -118.0325 90° East 383 441 16,100 1,800 Climbing Los Angeles Center
03:28PM 33.6433 -117.9033 90° East 388 447 18,800 2,400 Climbing Los Angeles Center
03:29PM 33.6431 -117.7672 90° East 406 467 21,100 2,220 Climbing Los Angeles Center
03:30PM 33.6422 -117.6231 90° East 428 493 23,400 2,100 Climbing Los Angeles Center
03:31PM 33.6422 -117.4764 90° East 440 506 25,500 2,040 Climbing Los Angeles Center
03:32PM 33.6406 -117.2942 91° East 455 524 27,700 1,800 Climbing Los Angeles Center
03:33PM 33.6394 -117.1372 90° East 469 540 29,300 1,440 Climbing Los Angeles Center
03:34PM 33.6311 -116.9769 94° East 482 555 30,700 1,740 Climbing Los Angeles Center
03:35PM 33.6083 -116.7992 99° East 487 560 33,000 1,980 Climbing Los Angeles Center
03:36PM 33.5878 -116.6439 99° East 475 547 34,900 1,500 Climbing Los Angeles Center
03:37PM 33.5681 -116.4903 99° East 466 536 36,100 960 Climbing Los Angeles Center
03:38PM 33.5492 -116.3361 98° East 466 536 37,000 420 Climbing Los Angeles Center
03:39PM 33.5278 -116.1800 99° East 470 541 37,000  Level Los Angeles Center
03:40PM 33.5081 -116.0250 99° East 469 540 37,000  Level Los Angeles Center
03:41PM 33.4861 -115.8714 100° East 467 537 37,000  Level Los Angeles Center
03:42PM 33.4617 -115.6875 99° East 466 536 37,000  Level Los Angeles Center
03:43PM 33.4439 -115.5333 98° East 466 536 37,000  Level Los Angeles Center
03:44PM 33.4272 -115.3475 96° East 467 537 37,000  Level Los Angeles Center
03:45PM 33.4139 -115.1928 96° East 469 540 37,000  Level Los Angeles Center
03:46PM 33.3992 -115.0358 96° East 473 544 37,000  Level Los Angeles Center
03:48PM 33.3853 -114.8778 96° East 479 551 37,000  Level Los Angeles Center
03:50PM 33.3522 -114.5317 96° East 476 548 37,000  Level Los Angeles Center
03:50PM 33.3511 -114.4850 92° East 477 549 37,000  Level Albuquerque Center
03:51PM 33.3364 -114.3289 96° East 474 545 37,000  Level Albuquerque Center
03:52PM 33.3192 -114.1722 97° East 475 547 37,000  Level Albuquerque Center
03:53PM 33.3039 -114.0147 97° East 476 548 37,000  Level Albuquerque Center
03:54PM 33.2875 -113.8575 97° East 475 547 37,000  Level Albuquerque Center
03:55PM 33.2711 -113.7014 97° East 475 547 37,000  Level Albuquerque Center
03:56PM 33.2733 -113.5433 89° East 477 549 37,000  Level Albuquerque Center
03:57PM 33.2731 -113.3508 90° East 485 558 37,000  Level Albuquerque Center
03:58PM 33.2553 -113.1908 98° East 487 560 37,000  Level Albuquerque Center
03:59PM 33.2381 -113.0306 97° East 486 559 37,000  Level Albuquerque Center
04:00PM 33.2197 -112.8708 98° East 485 558 37,000  Level Albuquerque Center
04:01PM 33.2019 -112.7122 98° East 482 555 37,000  Level Albuquerque Center
04:02PM 33.1836 -112.5619 98° East 479 551 37,000  Level Albuquerque Center
04:03PM 33.1622 -112.3731 98° East 481 554 37,000  Level Albuquerque Center
04:04PM 33.1442 -112.2167 98° East 480 552 37,000  Level Albuquerque Center
04:05PM 33.1258 -112.0611 98° East 478 550 37,000 60 Level Albuquerque Center
04:06PM 33.1072 -111.9056 98° East 477 549 37,200 660 Climbing Albuquerque Center
04:07PM 33.0883 -111.7467 98° East 485 558 38,400 840 Climbing Albuquerque Center
04:08PM 33.0656 -111.5597 98° East 480 552 39,000 240 Climbing Albuquerque Center
04:09PM 33.0461 -111.4028 98° East 481 554 39,000  Level Albuquerque Center
04:10PM 33.0256 -111.2481 99° East 477 549 39,000  Level Albuquerque Center
04:12PM 33.0064 -111.0911 98° East 480 552 39,000  Level Albuquerque Center
04:13PM 32.9864 -110.9336 99° East 483 556 39,000  Level Albuquerque Center
04:14PM 32.9631 -110.7469 98° East 479 551 39,000  Level Albuquerque Center
04:15PM 32.9442 -110.6081 99° East 479 551 39,000  Level Albuquerque Center
04:16PM 32.9242 -110.4536 99° East 476 548 39,000  Level Albuquerque Center
04:17PM 32.9000 -110.2689 99° East 476 548 39,000  Level Albuquerque Center
04:18PM 32.8783 -110.1156 100° East 476 548 39,000  Level Albuquerque Center
04:19PM 32.8547 -109.9603 100° East 482 555 39,000  Level Albuquerque Center
04:20PM 32.8331 -109.8053 99° East 482 555 39,000  Level Albuquerque Center
04:21PM 32.8083 -109.6203 99° East 480 552 39,000  Level Albuquerque Center
04:22PM 32.7864 -109.4667 100° East 479 551 39,000  Level Albuquerque Center
04:23PM 32.7650 -109.3131 99° East 479 551 39,000  Level Albuquerque Center
04:24PM 32.7433 -109.1628 100° East 475 547 39,000  Level Albuquerque Center
04:25PM 32.7236 -109.0064 98° East 476 548 39,000  Level Albuquerque Center
04:26PM 32.6933 -108.8200 101° East 478 550 39,000  Level Albuquerque Center
04:27PM 32.6714 -108.6733 100° East 484 557 39,000  Level Albuquerque Center
04:28PM 32.6497 -108.5208 100° East 478 550 39,000  Level Albuquerque Center
04:29PM 32.6214 -108.3369 100° East 479 551 39,000  Level Albuquerque Center
04:30PM 32.5989 -108.1847 100° East 476 548 39,000  Level Albuquerque Center
04:31PM 32.5753 -108.0331 100° East 473 544 39,000  Level Albuquerque Center
04:32PM 32.5508 -107.8806 101° East 475 547 39,000  Level Albuquerque Center
04:33PM 32.5244 -107.7044 100° East 483 556 39,000  Level Albuquerque Center
04:34PM 32.5008 -107.5511 100° East 479 551 39,000  Level Albuquerque Center
04:35PM 32.4758 -107.3897 100° East 475 547 39,000  Level Albuquerque Center
04:36PM 32.4511 -107.2347 101° East 480 552 39,000  Level Albuquerque Center
04:37PM 32.4253 -107.0564 100° East 487 560 39,000  Level Albuquerque Center
04:38PM 32.4000 -106.9031 101° East 478 550 39,000  Level Albuquerque Center
04:39PM 32.3761 -106.7603 101° East 477 549 39,000  Level Albuquerque Center
04:40PM 32.3503 -106.6069 101° East 477 549 39,000  Level Albuquerque Center
04:41PM 32.3200 -106.4242 101° East 474 545 39,000  Level Albuquerque Center
04:43PM 32.2944 -106.2731 101° East 471 542 39,000  Level Albuquerque Center
04:44PM 32.2689 -106.1214 101° East 476 548 39,000  Level Albuquerque Center
04:45PM 32.2422 -105.9706 102° East 472 543 39,000  Level Albuquerque Center
04:46PM 32.2164 -105.8211 102° East 466 536 39,000  Level Albuquerque Center
04:47PM 32.1906 -105.6711 101° East 466 536 39,000  Level Albuquerque Center
04:48PM 32.1586 -105.4911 102° East 467 537 39,000  Level Albuquerque Center
04:49PM 32.1325 -105.3389 101° East 471 542 39,000  Level Albuquerque Center
04:50PM 32.1067 -105.1903 102° East 465 535 39,000  Level Albuquerque Center
04:51PM 32.0800 -105.0389 102° East 469 540 39,000  Level Albuquerque Center
04:52PM 32.0533 -104.8867 102° East 472 543 39,000  Level Albuquerque Center
04:53PM 32.0258 -104.7361 102° East 471 542 39,000  Level Albuquerque Center
04:54PM 31.9928 -104.5511 102° East 478 550 39,000  Level Albuquerque Center
04:55PM 31.9644 -104.3997 102° East 474 545 39,000  Level Albuquerque Center
04:56PM 31.9353 -104.2422 102° East 485 558 39,000  Level Albuquerque Center
04:57PM 31.9061 -104.0844 102° East 490 564 39,000  Level Albuquerque Center
04:58PM 31.8792 -103.9406 102° East 489 563 39,000  Level Albuquerque Center
04:59PM 31.8494 -103.7736 102° East 487 560 39,000  Level Albuquerque Center
05:00PM 31.8147 -103.5997 103° East 488 562 39,000  Level Albuquerque Center
05:01PM 31.7828 -103.4322 103° East 486 559 39,000  Level Albuquerque Center
05:02PM 31.7531 -103.2797 103° East 482 555 39,000  Level Albuquerque Center
05:03PM 31.7236 -103.1256 103° East 483 556 39,000  Level Albuquerque Center
05:04PM 31.6933 -102.9694 103° East 488 562 39,000  Level Albuquerque Center
05:05PM 31.6617 -102.8133 103° East 490 564 39,000  Level Albuquerque Center
05:06PM 31.6308 -102.6575 103° East 490 564 39,000  Level Albuquerque Center
05:07PM 31.5939 -102.4703 103° East 490 564 39,000  Level Albuquerque Center
05:08PM 31.5628 -102.3153 103° East 485 558 39,000  Level Albuquerque Center
05:09PM 31.5319 -102.1597 103° East 484 557 39,000  Level Albuquerque Center
05:10PM 31.4969 -102.0017 105° East 487 560 39,000  Level Albuquerque Center
05:13PM 31.4294 -101.6661 103° East 483 556 39,000  Level Houston Center
05:14PM 31.3969 -101.5122 104° East 485 558 39,000  Level Houston Center
05:16PM 31.3328 -101.2047 104° East 487 560 39,000  Level Houston Center
05:17PM 31.2992 -101.0450 104° East 490 564 39,000  Level Houston Center
05:18PM 31.2661 -100.8919 104° East 487 560 39,000  Level Houston Center
05:19PM 31.2328 -100.7378 104° East 488 562 39,000  Level Houston Center
05:20PM 31.1928 -100.5517 104° East 490 564 39,000  Level Houston Center
05:21PM 31.1606 -100.3981 104° East 487 560 39,000  Level Houston Center
05:22PM 31.1267 -100.2456 105° East 485 558 39,000  Level Houston Center
05:23PM 31.0922 -100.0919 105° East 486 559 39,000  Level Houston Center
05:24PM 31.0581 -99.9378 104° East 488 562 39,000  Level Houston Center
05:25PM 31.0319 -99.7817 101° East 492 566 39,000  Level Houston Center
05:26PM 31.0064 -99.5917 99° East 494 568 39,000  Level Houston Center
05:27PM 30.9853 -99.4319 99° East 497 572 39,000  Level Houston Center
05:28PM 30.9636 -99.2697 99° East 503 579 39,000  Level Houston Center
05:29PM 30.9406 -99.1069 99° East 501 577 39,000  Level Houston Center
05:30PM 30.9183 -98.9458 99° East 501 577 39,000  Level Houston Center
05:31PM 30.8964 -98.7847 99° East 499 574 39,000  Level Houston Center
05:32PM 30.8736 -98.6250 99° East 498 573 39,000  Level Houston Center
05:33PM 30.8481 -98.4378 99° East 497 572 39,000  Level Houston Center
05:34PM 30.8250 -98.2797 100° East 495 570 39,000  Level Houston Center
05:35PM 30.8028 -98.1200 99° East 497 572 39,000  Level Houston Center
05:36PM 30.7800 -97.9606 99° East 496 571 39,000  Level Houston Center
05:37PM 30.7556 -97.8025 100° East 495 570 39,000 -420 Level Houston Center
05:38PM 30.7322 -97.6439 100° East 497 572 38,200 -1,020 Descending Houston Center
05:40PM 30.7033 -97.4611 100° East 493 567 37,000 -1,140 Descending Houston Center
05:41PM 30.6819 -97.3053 99° East 491 565 35,900 -2,220 Descending Houston Center
05:42PM 30.6447 -97.1542 106° East 490 564 32,500 -3,480 Descending Houston Center
05:43PM 30.5781 -97.0097 118° Southeast 506 582 28,800 -3,480 Descending Houston Center
05:44PM 30.5119 -96.8628 118° Southeast 510 587 25,300 -3,360 Descending Houston Center
05:45PM 30.4344 -96.6967 118° Southeast 499 574 21,800 -3,120 Descending Houston Center
05:46PM 30.3717 -96.5614 118° Southeast 475 547 18,900 -2,940 Descending Houston Center
05:47PM 30.3261 -96.4656 119° Southeast 459 528 16,600 -2,820 Descending Houston Center
05:47PM 30.3111 -96.4300 116° Southeast 460 529 16,000 -3,120 Descending Houston Center
05:47PM 30.2800 -96.3667 120° Southeast 440 506 14,400 -2,820 Descending Houston Center
05:48PM 30.2525 -96.3044 117° Southeast 443 510 13,100 -2,700 Descending Houston Center
05:48PM 30.2186 -96.2333 119° Southeast 429 494 11,400 -2,040 Descending Houston Center
05:49PM 30.1847 -96.1969 137° Southeast 410 472 11,000 -480 Descending Houston Center
05:49PM 30.1356 -96.1703 155° Southeast 388 447 11,000  Level Houston Center
05:50PM 30.0883 -96.1447 155° Southeast 387 445 11,000  Level Houston Center
05:50PM 30.0233 -96.1106 156° South 385 443 11,000  Level Houston Center
05:51PM 29.9908 -96.0914 153° Southeast 385 443 11,000  Level Houston Center
05:51PM 29.9267 -96.0586 156° South 385 443 11,000  Level Houston Center
05:52PM 29.8722 -96.0292 155° Southeast 389 448 11,000  Level Houston Center
05:52PM 29.8342 -96.0092 155° Southeast 389 448 11,000  Level Houston Center
05:53PM 29.7833 -95.9825 156° South 388 447 11,000  Level Houston Center
05:53PM 29.7361 -95.9433 144° Southeast 398 458 11,000  Level Houston Center
05:54PM 29.7008 -95.9025 135° Southeast 389 448 11,000  Level Houston Center
05:54PM 29.6733 -95.8494 121° Southeast 334 384 11,000 -720 Level Houston Center
05:55PM 29.6428 -95.7944 123° Southeast 328 377 10,300 -1,200 Descending Houston Center
05:55PM 29.6258 -95.7636 122° Southeast 316 364 9,800 -1,260 Descending Houston Center
05:56PM 29.5961 -95.7114 123° Southeast 312 359 9,000 -1,380 Descending Houston Center
05:56PM 29.5808 -95.6825 121° Southeast 300 345 8,400 -1,560 Descending Houston Center
05:57PM 29.5542 -95.6311 121° Southeast 298 343 7,400 -1,800 Descending Houston Center
05:57PM 29.5456 -95.5931 105° East 295 339 6,600 -1,980 Descending Houston Center
05:58PM 29.5442 -95.5406 92° East 294 338 5,400 -2,040 Descending Houston Center
05:58PM 29.5433 -95.4994 91° East 292 336 4,500 -1,860 Descending Houston Center
05:59PM 29.5414 -95.4486 93° East 291 335 3,500 -1,620 Descending Houston Center
06:00PM 29.5439 -95.4131 85° East 263 303 2,900 -1,200 Descending Houston Center
06:00PM 29.5581 -95.3725 68° East 269 310 2,300 -720 Descending Houston Center
06:01PM 29.5839 -95.3458 42° Northeast 191 220 2,100 -1,080 Descending Houston Center
06:01PM 29.6044 -95.3242 43° Northeast 211 243 1,200 -1,320 Descending Houston Center
06:02PM 29.6144 -95.3133 43° Northeast 151 174 900 -1,020 Descending Houston Center
06:02PM 29.6344 -95.2911 44° Northeast 172 198 200 -480 Descending Houston Center
06:03PM 29.6636 -95.2578 45° Northeast 168 193 100 -120 Descending Houston Center
06:05PM 29.6333 -95.2667 221° Southwest  Level FlightAware Approximate